x

Halibut Bank (46146) Wave Buoy

4:00pm - Mon 27th Feb 2017 All times are PST. -8 hours from GMT.

  • Sig Wave height 0.7ft
  • Peak Period 3s
  • Wind
    7mph, 9mph gusts
  • Sea Temp 44°f
  • Air Temp 37°f
  • Sea Pressure 1005.7mb
  • Halibut Bank
  • Halibut Bank

More Historic Weather Station data

Upgrade to MSW Pro to gain access to the past 30 days of data for over 8000 Wavebouys and Weather Stations around the globe.

Join Pro

Comparision Forecast

View Surf forecast
   
Mon 02/27 4:00pm 0.7ft 3s 7 9 mph 1005.7mb 44f 37f
3:00pm 0.7ft 3s 2 4 mph 1005.9mb 44f 37f
2:00pm 1ft 4s 4 7 mph 1006mb 44f 37f
1:00pm 1ft 4s 4 7 mph 1006.1mb 44f 35f
12:00pm 0.7ft 3s 7 9 mph 1006.5mb 43f 35f
11:00am 0.7ft 3s 9 11 mph 1006.6mb 43f 35f
10:00am 1ft 2s 7 9 mph 1006.8mb 43f 34f
9:00am 1ft 3s 9 13 mph 1006.6mb 43f 35f
8:00am 1ft 3s 13 18 mph 1006.4mb 43f 35f
7:00am 1ft 3s 13 18 mph 1006.3mb 43f 37f
6:00am 1ft 2s 13 16 mph 1006.5mb 43f 38f
5:00am 0.7ft 2s 13
mph
1006.4mb 43f 39f
4:00am 0.7ft 3s 9 11 mph 1006.7mb 43f 39f
3:00am 0.7ft 2s 7 9 mph 1007.2mb 43f 39f
2:00am 1ft 3s 4 7 mph 1007.8mb 43f 39f
1:00am 1ft 3s 7 9 mph 1008mb 43f 40f
12:00am 1ft 4s 2 4 mph 1008.2mb 43f 41f
Sun 02/26 11:00pm 1.3ft 3s  -  2 mph 1008.2mb 44f 40f
10:00pm 2ft 4s 7
mph
1008.5mb 44f 41f
9:00pm 2.5ft 4s 18 20 mph 1008.2mb 44f 42f
8:00pm 2.5ft 4s 16 18 mph 1008mb 44f 43f
7:00pm 2.5ft 4s 18 22 mph 1007.8mb 44f 43f
6:00pm 2.5ft 4s 18 22 mph 1007.4mb 44f 44f
5:00pm 2.5ft 4s 18 22 mph 1007.3mb 44f 44f
4:00pm 2.5ft 4s 18 22 mph 1007.4mb 44f 44f
3:00pm 2.5ft 4s 18 22 mph 1007.4mb 44f 43f
2:00pm 2.5ft 4s 20 22 mph 1007.5mb 44f 42f
1:00pm 1.6ft 3s 18 22 mph 1007.9mb 44f 41f
12:00pm 1.6ft 3s 18 22 mph 1008.4mb 44f 40f
11:00am 1.6ft 3s 18 22 mph 1008.7mb 44f 40f
10:00am 1.3ft 3s 13 18 mph 1008.7mb 44f 39f
9:00am 1.3ft 3s 13 16 mph 1008.4mb 44f 38f
8:00am 1ft 4s 11 13 mph 1007.9mb 44f 38f
7:00am 1.3ft 4s 9
mph
1007.5mb 44f 38f
6:00am 1.6ft 4s 9 11 mph 1007.4mb 44f 39f
5:00am 1.6ft 3s 18 20 mph 1006.9mb 44f 39f
4:00am 1.6ft 3s 16 18 mph 1007.4mb 44f 38f
3:00am 2ft 3s 18 22 mph 1007.7mb 44f 38f
2:00am 1.6ft 3s 20 22 mph 1008.6mb 44f 37f
1:00am 1ft 2s 18 20 mph 1009.4mb 44f 37f
12:00am 0.7ft 2s 16 18 mph 1010.4mb 44f 37f
Sat 02/25 11:00pm 1ft 2s 13 16 mph 1011.4mb 44f 37f
10:00pm 0.3ft 2s 13 16 mph 1012.2mb 44f 37f
9:00pm 0.7ft 3s 9 13 mph 1013mb 44f 38f
8:00pm 0.3ft 2s 9 11 mph 1013.8mb 44f 39f
7:00pm 0.7ft 6s 9 13 mph 1014.8mb 44f 39f
6:00pm 0.3ft 2s 9
mph
1015.6mb 44f 41f
5:00pm 0.3ft 6s 9 11 mph 1016.3mb 44f 40f
4:00pm 0.3ft 2s 7 9 mph 1017.8mb 44f 40f
3:00pm 0.3ft 3s 7 9 mph 1018.7mb 44f 40f
2:00pm 0.3ft 4s 7 9 mph 1019.9mb 44f 39f
1:00pm 0.3ft 2s 4 9 mph 1021mb 44f 39f
12:00pm 0.3ft 4s 2 4 mph 1022.3mb 44f 38f
11:00am 0.7ft 3s  -  2 mph 1022.9mb 44f 40f
10:00am 0.7ft 3s  -  2 mph 1023.3mb 43f 38f
9:00am 0.7ft 3s 4
mph
1023.7mb 43f 38f
8:00am 0.7ft 3s 7 9 mph 1024.2mb 43f 37f
7:00am 0.7ft 3s 7 9 mph 1024.2mb 43f 36f
6:00am 1ft 3s 9 11 mph 1024.2mb 43f 37f
5:00am 1ft 3s 9 11 mph 1024.4mb 44f 37f
4:00am 1.3ft 3s 9 11 mph 1024.7mb 44f 38f
3:00am 1.3ft 3s 9 13 mph 1025mb 44f 38f
2:00am 1.3ft 3s 13 16 mph 1025.5mb 44f 40f
1:00am 1ft 3s 13 16 mph 1025.6mb 44f 40f
12:00am 1ft 3s 13 16 mph 1025.6mb 44f 40f
Fri 02/24 11:00pm 1.3ft 3s 13 16 mph 1025.5mb 44f 40f
10:00pm 1ft 3s 13 18 mph 1025.2mb 44f 41f
9:00pm 1.3ft 3s 16 20 mph 1025.1mb 45f 41f
8:00pm 1ft 2s 18 22 mph 1024.7mb 45f 41f
7:00pm 0.7ft 4s 16 18 mph 1024.3mb 44f 41f
6:00pm 1ft 4s 11 13 mph 1024.2mb 44f 42f
5:00pm 1.3ft 4s 7 9 mph 1023.6mb 45f 42f
4:00pm 1.6ft 4s 4 7 mph 1023.3mb 45f 42f
3:00pm 1.6ft 4s 9
mph
1023.2mb 45f 42f
2:00pm 1.6ft 4s 7 9 mph 1023mb 45f 42f
1:00pm 2ft 4s 9 13 mph 1023mb 44f 41f
12:00pm 2.5ft 4s 13 18 mph 1023mb 44f 41f
11:00am 2.5ft 4s 16 18 mph 1022.5mb 44f 40f
10:00am 2.5ft 4s 16 18 mph 1022mb 44f 40f
9:00am 2.5ft 4s 20 25 mph 1021.3mb 45f 39f
8:00am 2.5ft 4s 22 27 mph 1020.6mb 45f 38f
7:00am 2.5ft 4s 22 27 mph 1019.8mb 45f 39f
6:00am 2.5ft 4s 22 27 mph 1019.4mb 45f 39f
5:00am 1.6ft 3s 20 25 mph 1019.3mb 44f 39f
4:00am 1ft 2s 16 20 mph 1019.6mb 44f 38f
3:00am 0.7ft 2s 11 13 mph 1019.8mb 44f 38f
2:00am 0.7ft 2s 9 11 mph 1020.1mb 44f 38f